sensor_id;sensor_type;location;lat;lon;timestamp;temperature;humidity
14779;DHT22;7481;53.750;10.570;2022-08-19T00:01:17;19.70;99.90
14779;DHT22;7481;53.750;10.570;2022-08-19T00:04:16;19.70;99.90
14779;DHT22;7481;53.750;10.570;2022-08-19T00:07:05;19.70;99.90
14779;DHT22;7481;53.750;10.570;2022-08-19T00:09:52;19.70;99.90
14779;DHT22;7481;53.750;10.570;2022-08-19T00:12:43;19.70;99.90
14779;DHT22;7481;53.750;10.570;2022-08-19T00:15:35;19.70;99.90
14779;DHT22;7481;53.750;10.570;2022-08-19T00:18:22;19.60;99.90
14779;DHT22;7481;53.750;10.570;2022-08-19T00:21:09;19.70;99.90
14779;DHT22;7481;53.750;10.570;2022-08-19T00:23:57;19.70;99.90
14779;DHT22;7481;53.750;10.570;2022-08-19T00:26:48;19.60;99.90
14779;DHT22;7481;53.750;10.570;2022-08-19T00:29:35;19.80;99.90
14779;DHT22;7481;53.750;10.570;2022-08-19T00:32:22;19.70;99.90
14779;DHT22;7481;53.750;10.570;2022-08-19T00:35:09;19.60;99.90
14779;DHT22;7481;53.750;10.570;2022-08-19T00:37:57;19.50;99.90
14779;DHT22;7481;53.750;10.570;2022-08-19T00:40:45;19.60;99.90
14779;DHT22;7481;53.750;10.570;2022-08-19T00:43:33;19.60;99.90
14779;DHT22;7481;53.750;10.570;2022-08-19T00:46:20;19.60;99.90
14779;DHT22;7481;53.750;10.570;2022-08-19T00:49:16;19.60;99.90
14779;DHT22;7481;53.750;10.570;2022-08-19T00:52:07;19.50;99.90
14779;DHT22;7481;53.750;10.570;2022-08-19T00:54:57;19.60;99.90
14779;DHT22;7481;53.750;10.570;2022-08-19T00:57:49;19.50;99.90
14779;DHT22;7481;53.750;10.570;2022-08-19T01:00:38;19.60;99.90
14779;DHT22;7481;53.750;10.570;2022-08-19T01:03:25;19.60;99.90
14779;DHT22;7481;53.750;10.570;2022-08-19T01:06:12;19.60;99.90
14779;DHT22;7481;53.750;10.570;2022-08-19T01:09:05;19.60;99.90
14779;DHT22;7481;53.750;10.570;2022-08-19T01:11:53;19.60;99.90
14779;DHT22;7481;53.750;10.570;2022-08-19T01:14:40;19.80;99.90
14779;DHT22;7481;53.750;10.570;2022-08-19T01:17:27;19.50;99.90
14779;DHT22;7481;53.750;10.570;2022-08-19T01:20:19;19.50;99.90
14779;DHT22;7481;53.750;10.570;2022-08-19T01:23:07;20.20;99.90
14779;DHT22;7481;53.750;10.570;2022-08-19T01:25:54;19.60;99.90
14779;DHT22;7481;53.750;10.570;2022-08-19T01:28:46;19.50;99.90
14779;DHT22;7481;53.750;10.570;2022-08-19T01:31:34;19.90;99.90
14779;DHT22;7481;53.750;10.570;2022-08-19T01:34:23;19.50;99.90
14779;DHT22;7481;53.750;10.570;2022-08-19T01:37:11;20.50;99.90
14779;DHT22;7481;53.750;10.570;2022-08-19T01:39:58;19.50;99.90
14779;DHT22;7481;53.750;10.570;2022-08-19T01:42:47;19.50;99.90
14779;DHT22;7481;53.750;10.570;2022-08-19T01:45:35;19.50;99.90
14779;DHT22;7481;53.750;10.570;2022-08-19T01:48:22;20.30;99.90
14779;DHT22;7481;53.750;10.570;2022-08-19T01:51:10;19.50;99.90
14779;DHT22;7481;53.750;10.570;2022-08-19T01:53:58;19.50;99.90
14779;DHT22;7481;53.750;10.570;2022-08-19T01:56:45;19.50;99.90
14779;DHT22;7481;53.750;10.570;2022-08-19T01:59:32;19.60;99.90
14779;DHT22;7481;53.750;10.570;2022-08-19T02:02:19;19.60;99.90
14779;DHT22;7481;53.750;10.570;2022-08-19T02:05:07;19.50;99.90
14779;DHT22;7481;53.750;10.570;2022-08-19T02:07:57;19.50;99.90
14779;DHT22;7481;53.750;10.570;2022-08-19T02:10:45;19.50;99.90
14779;DHT22;7481;53.750;10.570;2022-08-19T02:13:33;20.00;99.90
14779;DHT22;7481;53.750;10.570;2022-08-19T02:16:21;19.50;99.90
14779;DHT22;7481;53.750;10.570;2022-08-19T02:19:08;19.50;99.90
14779;DHT22;7481;53.750;10.570;2022-08-19T02:21:55;19.50;99.90
14779;DHT22;7481;53.750;10.570;2022-08-19T02:24:42;19.50;99.90
14779;DHT22;7481;53.750;10.570;2022-08-19T02:27:29;19.50;99.90
14779;DHT22;7481;53.750;10.570;2022-08-19T02:30:17;20.00;99.90
14779;DHT22;7481;53.750;10.570;2022-08-19T02:33:05;19.40;99.90
14779;DHT22;7481;53.750;10.570;2022-08-19T02:35:52;19.50;99.90
14779;DHT22;7481;53.750;10.570;2022-08-19T02:38:39;19.50;99.90
14779;DHT22;7481;53.750;10.570;2022-08-19T02:41:29;19.40;99.90
14779;DHT22;7481;53.750;10.570;2022-08-19T02:44:17;19.40;99.90
14779;DHT22;7481;53.750;10.570;2022-08-19T02:47:17;19.50;99.90
14779;DHT22;7481;53.750;10.570;2022-08-19T02:50:06;19.40;99.90
14779;DHT22;7481;53.750;10.570;2022-08-19T02:52:53;19.40;99.90
14779;DHT22;7481;53.750;10.570;2022-08-19T02:55:45;19.40;99.90
14779;DHT22;7481;53.750;10.570;2022-08-19T02:58:33;20.20;99.90
14779;DHT22;7481;53.750;10.570;2022-08-19T03:01:26;19.40;99.90
14779;DHT22;7481;53.750;10.570;2022-08-19T03:04:15;19.50;99.90
14779;DHT22;7481;53.750;10.570;2022-08-19T03:07:02;19.50;99.90
14779;DHT22;7481;53.750;10.570;2022-08-19T03:09:57;19.50;99.90
14779;DHT22;7481;53.750;10.570;2022-08-19T03:12:44;19.50;99.90
14779;DHT22;7481;53.750;10.570;2022-08-19T03:15:32;19.40;99.90
14779;DHT22;7481;53.750;10.570;2022-08-19T03:18:19;19.40;99.90
14779;DHT22;7481;53.750;10.570;2022-08-19T03:21:09;19.40;99.90
14779;DHT22;7481;53.750;10.570;2022-08-19T03:24:01;18.10;99.90
14779;DHT22;7481;53.750;10.570;2022-08-19T03:26:52;19.40;99.90
14779;DHT22;7481;53.750;10.570;2022-08-19T03:29:39;19.40;99.90
14779;DHT22;7481;53.750;10.570;2022-08-19T03:32:29;19.40;99.90
14779;DHT22;7481;53.750;10.570;2022-08-19T03:35:19;19.40;99.90
14779;DHT22;7481;53.750;10.570;2022-08-19T03:38:06;19.50;99.90
14779;DHT22;7481;53.750;10.570;2022-08-19T03:40:54;19.40;99.90
14779;DHT22;7481;53.750;10.570;2022-08-19T03:43:42;19.40;99.90
14779;DHT22;7481;53.750;10.570;2022-08-19T03:46:31;19.40;99.90
14779;DHT22;7481;53.750;10.570;2022-08-19T03:49:19;19.40;99.90
14779;DHT22;7481;53.750;10.570;2022-08-19T03:52:13;19.40;99.90
14779;DHT22;7481;53.750;10.570;2022-08-19T03:55:01;19.50;99.90
14779;DHT22;7481;53.750;10.570;2022-08-19T03:57:48;19.50;99.90
14779;DHT22;7481;53.750;10.570;2022-08-19T04:00:35;19.40;99.90
14779;DHT22;7481;53.750;10.570;2022-08-19T04:03:23;19.40;99.90
14779;DHT22;7481;53.750;10.570;2022-08-19T04:06:19;19.40;99.90
14779;DHT22;7481;53.750;10.570;2022-08-19T04:09:09;19.50;99.90
14779;DHT22;7481;53.750;10.570;2022-08-19T04:11:57;19.40;99.90
14779;DHT22;7481;53.750;10.570;2022-08-19T04:14:45;19.50;99.90
14779;DHT22;7481;53.750;10.570;2022-08-19T04:17:32;19.40;99.90
14779;DHT22;7481;53.750;10.570;2022-08-19T04:20:19;19.50;99.90
14779;DHT22;7481;53.750;10.570;2022-08-19T04:23:06;19.50;99.90
14779;DHT22;7481;53.750;10.570;2022-08-19T04:25:54;19.50;99.90
14779;DHT22;7481;53.750;10.570;2022-08-19T04:28:43;19.50;99.90
14779;DHT22;7481;53.750;10.570;2022-08-19T04:31:31;19.50;99.90
14779;DHT22;7481;53.750;10.570;2022-08-19T04:34:24;19.50;99.90
14779;DHT22;7481;53.750;10.570;2022-08-19T04:37:11;19.50;99.90
14779;DHT22;7481;53.750;10.570;2022-08-19T04:39:59;19.50;99.90
14779;DHT22;7481;53.750;10.570;2022-08-19T04:43:06;19.50;99.90
14779;DHT22;7481;53.750;10.570;2022-08-19T04:45:53;19.50;99.90
14779;DHT22;7481;53.750;10.570;2022-08-19T04:48:46;19.60;99.90
14779;DHT22;7481;53.750;10.570;2022-08-19T04:51:35;19.60;99.90
14779;DHT22;7481;53.750;10.570;2022-08-19T04:54:24;19.60;99.90
14779;DHT22;7481;53.750;10.570;2022-08-19T04:57:25;19.50;99.90
14779;DHT22;7481;53.750;10.570;2022-08-19T05:00:13;19.50;99.90
14779;DHT22;7481;53.750;10.570;2022-08-19T05:03:01;19.50;99.90
14779;DHT22;7481;53.750;10.570;2022-08-19T05:05:48;19.50;99.90
14779;DHT22;7481;53.750;10.570;2022-08-19T05:08:38;19.50;99.90
14779;DHT22;7481;53.750;10.570;2022-08-19T05:11:29;19.50;99.90
14779;DHT22;7481;53.750;10.570;2022-08-19T05:14:16;19.50;99.90
14779;DHT22;7481;53.750;10.570;2022-08-19T05:17:03;19.50;99.90
14779;DHT22;7481;53.750;10.570;2022-08-19T05:20:10;19.50;99.90
14779;DHT22;7481;53.750;10.570;2022-08-19T05:23:16;19.40;99.90
14779;DHT22;7481;53.750;10.570;2022-08-19T05:26:08;19.50;99.90
14779;DHT22;7481;53.750;10.570;2022-08-19T05:28:57;19.50;99.90
14779;DHT22;7481;53.750;10.570;2022-08-19T05:31:47;19.50;99.90
14779;DHT22;7481;53.750;10.570;2022-08-19T05:34:36;19.50;99.90
14779;DHT22;7481;53.750;10.570;2022-08-19T05:37:24;19.50;99.90
14779;DHT22;7481;53.750;10.570;2022-08-19T05:40:14;19.50;99.90
14779;DHT22;7481;53.750;10.570;2022-08-19T05:43:06;19.50;99.90
14779;DHT22;7481;53.750;10.570;2022-08-19T05:45:53;19.50;99.90
14779;DHT22;7481;53.750;10.570;2022-08-19T05:49:07;19.50;99.90
14779;DHT22;7481;53.750;10.570;2022-08-19T05:51:54;19.60;99.90
14779;DHT22;7481;53.750;10.570;2022-08-19T05:54:42;19.60;99.90
14779;DHT22;7481;53.750;10.570;2022-08-19T05:57:29;19.60;99.90
14779;DHT22;7481;53.750;10.570;2022-08-19T06:00:17;19.60;99.90
14779;DHT22;7481;53.750;10.570;2022-08-19T06:03:10;19.60;99.90
14779;DHT22;7481;53.750;10.570;2022-08-19T06:05:59;19.60;99.90
14779;DHT22;7481;53.750;10.570;2022-08-19T06:08:46;19.60;99.90
14779;DHT22;7481;53.750;10.570;2022-08-19T06:11:42;19.60;99.90
14779;DHT22;7481;53.750;10.570;2022-08-19T06:14:32;19.60;99.90
14779;DHT22;7481;53.750;10.570;2022-08-19T06:17:25;19.60;99.90
14779;DHT22;7481;53.750;10.570;2022-08-19T06:20:14;19.60;99.90
14779;DHT22;7481;53.750;10.570;2022-08-19T06:23:02;19.60;99.90
14779;DHT22;7481;53.750;10.570;2022-08-19T06:25:49;21.20;99.90
14779;DHT22;7481;53.750;10.570;2022-08-19T06:28:36;19.60;99.90
14779;DHT22;7481;53.750;10.570;2022-08-19T06:31:26;19.80;99.90
14779;DHT22;7481;53.750;10.570;2022-08-19T06:34:13;19.70;99.90
14779;DHT22;7481;53.750;10.570;2022-08-19T06:37:01;19.70;99.90
14779;DHT22;7481;53.750;10.570;2022-08-19T06:39:48;19.90;99.90
14779;DHT22;7481;53.750;10.570;2022-08-19T06:42:36;19.70;99.90
14779;DHT22;7481;53.750;10.570;2022-08-19T06:45:29;19.60;99.90
14779;DHT22;7481;53.750;10.570;2022-08-19T06:48:21;19.60;99.90
14779;DHT22;7481;53.750;10.570;2022-08-19T06:51:14;19.70;99.90
14779;DHT22;7481;53.750;10.570;2022-08-19T06:54:05;19.70;99.90
14779;DHT22;7481;53.750;10.570;2022-08-19T06:57:05;19.70;99.90
14779;DHT22;7481;53.750;10.570;2022-08-19T06:59:53;19.70;99.90
14779;DHT22;7481;53.750;10.570;2022-08-19T07:02:42;19.70;99.90
14779;DHT22;7481;53.750;10.570;2022-08-19T07:05:41;19.70;99.90
14779;DHT22;7481;53.750;10.570;2022-08-19T07:08:33;19.60;99.90
14779;DHT22;7481;53.750;10.570;2022-08-19T07:11:20;19.60;99.90
14779;DHT22;7481;53.750;10.570;2022-08-19T07:14:10;19.60;99.90
14779;DHT22;7481;53.750;10.570;2022-08-19T07:17:08;19.70;99.90
14779;DHT22;7481;53.750;10.570;2022-08-19T07:19:56;19.70;99.90
14779;DHT22;7481;53.750;10.570;2022-08-19T07:22:43;19.80;99.90
14779;DHT22;7481;53.750;10.570;2022-08-19T07:25:31;19.80;99.90
14779;DHT22;7481;53.750;10.570;2022-08-19T07:28:19;19.80;99.90
14779;DHT22;7481;53.750;10.570;2022-08-19T07:31:13;19.90;99.90
14779;DHT22;7481;53.750;10.570;2022-08-19T07:34:01;19.90;99.90
14779;DHT22;7481;53.750;10.570;2022-08-19T07:36:48;19.90;99.90
14779;DHT22;7481;53.750;10.570;2022-08-19T07:39:37;19.80;99.90
14779;DHT22;7481;53.750;10.570;2022-08-19T07:42:25;20.10;99.90
14779;DHT22;7481;53.750;10.570;2022-08-19T07:45:12;19.90;99.90
14779;DHT22;7481;53.750;10.570;2022-08-19T07:47:59;19.80;99.90
14779;DHT22;7481;53.750;10.570;2022-08-19T07:50:47;19.80;99.90
14779;DHT22;7481;53.750;10.570;2022-08-19T07:53:36;19.80;99.90
14779;DHT22;7481;53.750;10.570;2022-08-19T07:56:26;19.80;99.90
14779;DHT22;7481;53.750;10.570;2022-08-19T07:59:13;19.80;99.90
14779;DHT22;7481;53.750;10.570;2022-08-19T08:02:00;19.80;99.90
14779;DHT22;7481;53.750;10.570;2022-08-19T08:04:47;19.80;99.90
14779;DHT22;7481;53.750;10.570;2022-08-19T08:07:53;19.80;99.90
14779;DHT22;7481;53.750;10.570;2022-08-19T08:10:59;19.80;99.90
14779;DHT22;7481;53.750;10.570;2022-08-19T08:13:48;19.80;99.90
14779;DHT22;7481;53.750;10.570;2022-08-19T08:16:50;17.90;99.90
14779;DHT22;7481;53.750;10.570;2022-08-19T08:19:38;19.80;99.90
14779;DHT22;7481;53.750;10.570;2022-08-19T08:22:27;19.80;99.90
14779;DHT22;7481;53.750;10.570;2022-08-19T08:25:34;19.80;99.90
14779;DHT22;7481;53.750;10.570;2022-08-19T08:28:22;19.70;99.90
14779;DHT22;7481;53.750;10.570;2022-08-19T08:31:09;19.70;99.90
14779;DHT22;7481;53.750;10.570;2022-08-19T08:33:57;19.70;99.90
14779;DHT22;7481;53.750;10.570;2022-08-19T08:36:45;19.70;99.90
14779;DHT22;7481;53.750;10.570;2022-08-19T08:39:32;19.70;99.90
14779;DHT22;7481;53.750;10.570;2022-08-19T08:42:28;19.70;99.90
14779;DHT22;7481;53.750;10.570;2022-08-19T08:45:18;19.70;99.90
14779;DHT22;7481;53.750;10.570;2022-08-19T08:48:20;19.70;99.90
14779;DHT22;7481;53.750;10.570;2022-08-19T08:51:14;19.80;99.90
14779;DHT22;7481;53.750;10.570;2022-08-19T08:54:10;19.80;99.90
14779;DHT22;7481;53.750;10.570;2022-08-19T08:56:57;19.80;99.90
14779;DHT22;7481;53.750;10.570;2022-08-19T08:59:47;19.90;99.90
14779;DHT22;7481;53.750;10.570;2022-08-19T09:02:37;19.90;99.90
14779;DHT22;7481;53.750;10.570;2022-08-19T09:11:48;19.90;99.90
14779;DHT22;7481;53.750;10.570;2022-08-19T09:14:53;19.90;99.90
14779;DHT22;7481;53.750;10.570;2022-08-19T09:17:42;19.90;99.90
14779;DHT22;7481;53.750;10.570;2022-08-19T09:20:36;19.90;99.90
14779;DHT22;7481;53.750;10.570;2022-08-19T09:23:28;19.90;99.90
14779;DHT22;7481;53.750;10.570;2022-08-19T09:26:18;19.90;99.90
14779;DHT22;7481;53.750;10.570;2022-08-19T09:29:08;18.50;99.90
14779;DHT22;7481;53.750;10.570;2022-08-19T09:31:55;20.10;99.90
14779;DHT22;7481;53.750;10.570;2022-08-19T09:34:42;20.10;99.90
14779;DHT22;7481;53.750;10.570;2022-08-19T09:37:33;20.10;99.90
14779;DHT22;7481;53.750;10.570;2022-08-19T09:40:20;20.20;99.90
14779;DHT22;7481;53.750;10.570;2022-08-19T09:43:10;20.20;99.90
14779;DHT22;7481;53.750;10.570;2022-08-19T09:46:00;20.20;99.90
14779;DHT22;7481;53.750;10.570;2022-08-19T09:48:48;20.20;99.90
14779;DHT22;7481;53.750;10.570;2022-08-19T09:51:35;20.30;99.90
14779;DHT22;7481;53.750;10.570;2022-08-19T09:54:23;20.40;99.90
14779;DHT22;7481;53.750;10.570;2022-08-19T09:57:11;20.40;99.90
14779;DHT22;7481;53.750;10.570;2022-08-19T09:59:58;20.40;99.90
14779;DHT22;7481;53.750;10.570;2022-08-19T10:02:45;20.30;99.90
14779;DHT22;7481;53.750;10.570;2022-08-19T10:05:32;20.30;99.90
14779;DHT22;7481;53.750;10.570;2022-08-19T10:08:41;20.30;99.90
14779;DHT22;7481;53.750;10.570;2022-08-19T10:11:38;20.30;99.90
14779;DHT22;7481;53.750;10.570;2022-08-19T10:14:34;20.30;99.90
14779;DHT22;7481;53.750;10.570;2022-08-19T10:17:21;20.30;99.90
14779;DHT22;7481;53.750;10.570;2022-08-19T10:20:13;20.20;99.90
14779;DHT22;7481;53.750;10.570;2022-08-19T10:23:00;20.20;99.90
14779;DHT22;7481;53.750;10.570;2022-08-19T10:25:48;20.10;99.90
14779;DHT22;7481;53.750;10.570;2022-08-19T10:28:36;20.10;99.90
14779;DHT22;7481;53.750;10.570;2022-08-19T10:31:30;20.10;99.90
14779;DHT22;7481;53.750;10.570;2022-08-19T10:34:38;20.10;99.90
14779;DHT22;7481;53.750;10.570;2022-08-19T10:37:36;18.10;99.90
14779;DHT22;7481;53.750;10.570;2022-08-19T10:40:34;20.70;99.90
14779;DHT22;7481;53.750;10.570;2022-08-19T10:43:21;20.10;99.90
14779;DHT22;7481;53.750;10.570;2022-08-19T10:46:10;20.10;99.90
14779;DHT22;7481;53.750;10.570;2022-08-19T10:49:04;20.10;99.90
14779;DHT22;7481;53.750;10.570;2022-08-19T10:51:51;20.10;99.90
14779;DHT22;7481;53.750;10.570;2022-08-19T10:55:06;21.80;99.90
14779;DHT22;7481;53.750;10.570;2022-08-19T10:58:18;20.10;99.90
14779;DHT22;7481;53.750;10.570;2022-08-19T11:01:13;19.60;99.90
14779;DHT22;7481;53.750;10.570;2022-08-19T11:04:04;20.30;99.90
14779;DHT22;7481;53.750;10.570;2022-08-19T11:06:51;20.40;99.90
14779;DHT22;7481;53.750;10.570;2022-08-19T11:09:40;20.40;99.90
14779;DHT22;7481;53.750;10.570;2022-08-19T11:12:27;20.50;99.90
14779;DHT22;7481;53.750;10.570;2022-08-19T11:15:15;20.60;99.90
14779;DHT22;7481;53.750;10.570;2022-08-19T11:18:02;20.70;99.90
14779;DHT22;7481;53.750;10.570;2022-08-19T11:20:50;20.80;99.90
14779;DHT22;7481;53.750;10.570;2022-08-19T11:23:37;20.80;99.90
14779;DHT22;7481;53.750;10.570;2022-08-19T11:26:24;20.80;99.90
14779;DHT22;7481;53.750;10.570;2022-08-19T11:29:13;20.90;99.90
14779;DHT22;7481;53.750;10.570;2022-08-19T11:32:11;20.90;99.90
14779;DHT22;7481;53.750;10.570;2022-08-19T11:34:59;20.90;99.90
14779;DHT22;7481;53.750;10.570;2022-08-19T11:37:46;21.30;99.90
14779;DHT22;7481;53.750;10.570;2022-08-19T11:40:33;20.90;99.90
14779;DHT22;7481;53.750;10.570;2022-08-19T11:43:20;20.90;99.90
14779;DHT22;7481;53.750;10.570;2022-08-19T11:46:09;20.90;99.90
14779;DHT22;7481;53.750;10.570;2022-08-19T11:48:59;20.90;99.90
14779;DHT22;7481;53.750;10.570;2022-08-19T11:51:48;21.00;99.90
14779;DHT22;7481;53.750;10.570;2022-08-19T11:54:37;21.00;99.90
14779;DHT22;7481;53.750;10.570;2022-08-19T11:57:24;21.10;99.90
14779;DHT22;7481;53.750;10.570;2022-08-19T12:00:11;21.20;99.90
14779;DHT22;7481;53.750;10.570;2022-08-19T12:02:59;21.30;99.90
14779;DHT22;7481;53.750;10.570;2022-08-19T12:05:47;21.50;99.90
14779;DHT22;7481;53.750;10.570;2022-08-19T12:08:35;21.70;99.90
14779;DHT22;7481;53.750;10.570;2022-08-19T12:11:23;21.80;99.90
14779;DHT22;7481;53.750;10.570;2022-08-19T12:14:12;21.70;99.90
14779;DHT22;7481;53.750;10.570;2022-08-19T12:17:01;21.70;99.90
14779;DHT22;7481;53.750;10.570;2022-08-19T12:19:49;21.70;99.90
14779;DHT22;7481;53.750;10.570;2022-08-19T12:22:37;21.70;99.90
14779;DHT22;7481;53.750;10.570;2022-08-19T12:25:24;21.70;99.90
14779;DHT22;7481;53.750;10.570;2022-08-19T12:28:11;21.60;99.90
14779;DHT22;7481;53.750;10.570;2022-08-19T12:30:58;22.00;99.90
14779;DHT22;7481;53.750;10.570;2022-08-19T12:33:46;21.70;99.90
14779;DHT22;7481;53.750;10.570;2022-08-19T12:36:33;21.80;99.90
14779;DHT22;7481;53.750;10.570;2022-08-19T12:39:21;21.90;99.90
14779;DHT22;7481;53.750;10.570;2022-08-19T12:42:09;21.90;99.90
14779;DHT22;7481;53.750;10.570;2022-08-19T12:44:57;22.10;99.90
14779;DHT22;7481;53.750;10.570;2022-08-19T12:47:44;22.30;99.90
14779;DHT22;7481;53.750;10.570;2022-08-19T12:50:34;22.50;99.90
14779;DHT22;7481;53.750;10.570;2022-08-19T12:53:21;22.60;99.90
14779;DHT22;7481;53.750;10.570;2022-08-19T12:56:10;22.70;99.90
14779;DHT22;7481;53.750;10.570;2022-08-19T12:59:01;22.70;99.90
14779;DHT22;7481;53.750;10.570;2022-08-19T13:01:48;22.80;99.90
14779;DHT22;7481;53.750;10.570;2022-08-19T13:04:35;23.00;99.90
14779;DHT22;7481;53.750;10.570;2022-08-19T13:07:24;23.20;99.90
14779;DHT22;7481;53.750;10.570;2022-08-19T13:10:14;23.20;99.90
14779;DHT22;7481;53.750;10.570;2022-08-19T13:13:05;23.30;99.90
14779;DHT22;7481;53.750;10.570;2022-08-19T13:15:52;23.40;99.90
14779;DHT22;7481;53.750;10.570;2022-08-19T13:18:46;23.30;99.90
14779;DHT22;7481;53.750;10.570;2022-08-19T13:21:34;23.10;99.90
14779;DHT22;7481;53.750;10.570;2022-08-19T13:24:22;23.00;99.90
14779;DHT22;7481;53.750;10.570;2022-08-19T13:27:15;23.00;99.90
14779;DHT22;7481;53.750;10.570;2022-08-19T13:30:05;22.90;99.90
14779;DHT22;7481;53.750;10.570;2022-08-19T13:33:11;22.80;99.90
14779;DHT22;7481;53.750;10.570;2022-08-19T13:35:59;22.70;99.90
14779;DHT22;7481;53.750;10.570;2022-08-19T13:38:47;22.40;99.90
14779;DHT22;7481;53.750;10.570;2022-08-19T13:41:35;22.30;99.90
14779;DHT22;7481;53.750;10.570;2022-08-19T13:44:23;22.10;99.90
14779;DHT22;7481;53.750;10.570;2022-08-19T13:47:09;22.30;99.90
14779;DHT22;7481;53.750;10.570;2022-08-19T13:49:59;21.90;99.90
14779;DHT22;7481;53.750;10.570;2022-08-19T13:52:47;21.90;99.90
14779;DHT22;7481;53.750;10.570;2022-08-19T13:55:35;21.90;99.90
14779;DHT22;7481;53.750;10.570;2022-08-19T13:58:22;22.00;99.90
14779;DHT22;7481;53.750;10.570;2022-08-19T14:01:10;22.00;99.90
14779;DHT22;7481;53.750;10.570;2022-08-19T14:03:57;22.10;99.90
14779;DHT22;7481;53.750;10.570;2022-08-19T14:06:44;22.10;99.90
14779;DHT22;7481;53.750;10.570;2022-08-19T14:09:31;22.20;99.90
14779;DHT22;7481;53.750;10.570;2022-08-19T14:12:22;22.30;99.90
14779;DHT22;7481;53.750;10.570;2022-08-19T14:15:15;22.30;99.90
14779;DHT22;7481;53.750;10.570;2022-08-19T14:18:02;22.50;99.90
14779;DHT22;7481;53.750;10.570;2022-08-19T14:20:49;22.50;99.90
14779;DHT22;7481;53.750;10.570;2022-08-19T14:23:36;22.50;99.90
14779;DHT22;7481;53.750;10.570;2022-08-19T14:26:23;22.50;99.90
14779;DHT22;7481;53.750;10.570;2022-08-19T14:29:10;22.60;99.90
14779;DHT22;7481;53.750;10.570;2022-08-19T14:31:57;22.60;99.90
14779;DHT22;7481;53.750;10.570;2022-08-19T14:34:45;22.70;99.90
14779;DHT22;7481;53.750;10.570;2022-08-19T14:37:33;22.60;99.90
14779;DHT22;7481;53.750;10.570;2022-08-19T14:40:32;22.70;99.90
14779;DHT22;7481;53.750;10.570;2022-08-19T14:43:19;22.70;99.90
14779;DHT22;7481;53.750;10.570;2022-08-19T14:46:06;22.80;99.90
14779;DHT22;7481;53.750;10.570;2022-08-19T14:48:56;22.80;99.90
14779;DHT22;7481;53.750;10.570;2022-08-19T14:51:46;22.90;99.90
14779;DHT22;7481;53.750;10.570;2022-08-19T14:54:33;22.90;99.90
14779;DHT22;7481;53.750;10.570;2022-08-19T14:57:20;22.90;99.90
14779;DHT22;7481;53.750;10.570;2022-08-19T15:00:09;23.00;99.90
14779;DHT22;7481;53.750;10.570;2022-08-19T15:03:02;23.00;99.90
14779;DHT22;7481;53.750;10.570;2022-08-19T15:05:49;22.90;99.90
14779;DHT22;7481;53.750;10.570;2022-08-19T15:08:37;22.90;99.90
14779;DHT22;7481;53.750;10.570;2022-08-19T15:11:26;22.90;99.90
14779;DHT22;7481;53.750;10.570;2022-08-19T15:14:14;22.80;99.90
14779;DHT22;7481;53.750;10.570;2022-08-19T15:17:02;22.70;99.90
14779;DHT22;7481;53.750;10.570;2022-08-19T15:19:50;22.80;99.90
14779;DHT22;7481;53.750;10.570;2022-08-19T15:22:37;22.70;99.90
14779;DHT22;7481;53.750;10.570;2022-08-19T15:25:24;22.70;99.90
14779;DHT22;7481;53.750;10.570;2022-08-19T15:28:11;22.70;99.90
14779;DHT22;7481;53.750;10.570;2022-08-19T15:30:58;22.70;99.90
14779;DHT22;7481;53.750;10.570;2022-08-19T15:33:45;22.80;99.90
14779;DHT22;7481;53.750;10.570;2022-08-19T15:36:35;22.70;99.90
14779;DHT22;7481;53.750;10.570;2022-08-19T15:39:22;22.70;99.90
14779;DHT22;7481;53.750;10.570;2022-08-19T15:42:09;22.70;99.90
14779;DHT22;7481;53.750;10.570;2022-08-19T15:44:56;22.70;99.90
14779;DHT22;7481;53.750;10.570;2022-08-19T15:47:46;22.70;99.90
14779;DHT22;7481;53.750;10.570;2022-08-19T15:50:34;22.50;99.90
14779;DHT22;7481;53.750;10.570;2022-08-19T15:53:21;22.60;99.90
14779;DHT22;7481;53.750;10.570;2022-08-19T15:56:09;22.60;99.90
14779;DHT22;7481;53.750;10.570;2022-08-19T15:58:56;22.60;99.90
14779;DHT22;7481;53.750;10.570;2022-08-19T16:02:02;22.50;99.90
14779;DHT22;7481;53.750;10.570;2022-08-19T16:05:20;22.50;99.90
14779;DHT22;7481;53.750;10.570;2022-08-19T16:08:26;22.50;99.90
14779;DHT22;7481;53.750;10.570;2022-08-19T16:11:14;22.50;99.90
14779;DHT22;7481;53.750;10.570;2022-08-19T16:14:06;22.40;99.90
14779;DHT22;7481;53.750;10.570;2022-08-19T16:16:54;22.40;99.90
14779;DHT22;7481;53.750;10.570;2022-08-19T16:19:42;22.40;99.90
14779;DHT22;7481;53.750;10.570;2022-08-19T16:22:31;22.30;99.90
14779;DHT22;7481;53.750;10.570;2022-08-19T16:25:18;22.30;99.90
14779;DHT22;7481;53.750;10.570;2022-08-19T16:28:05;22.20;99.90
14779;DHT22;7481;53.750;10.570;2022-08-19T16:30:54;22.20;99.90
14779;DHT22;7481;53.750;10.570;2022-08-19T16:33:41;22.10;99.90
14779;DHT22;7481;53.750;10.570;2022-08-19T16:36:28;22.00;99.90
14779;DHT22;7481;53.750;10.570;2022-08-19T16:39:17;21.90;99.90
14779;DHT22;7481;53.750;10.570;2022-08-19T16:42:06;21.90;99.90
14779;DHT22;7481;53.750;10.570;2022-08-19T16:44:53;22.00;99.90
14779;DHT22;7481;53.750;10.570;2022-08-19T16:47:40;21.80;99.90
14779;DHT22;7481;53.750;10.570;2022-08-19T16:50:27;21.70;99.90
14779;DHT22;7481;53.750;10.570;2022-08-19T16:53:35;21.70;99.90
14779;DHT22;7481;53.750;10.570;2022-08-19T16:56:23;21.80;99.90
14779;DHT22;7481;53.750;10.570;2022-08-19T16:59:11;21.80;99.90
14779;DHT22;7481;53.750;10.570;2022-08-19T17:01:59;21.70;99.90
14779;DHT22;7481;53.750;10.570;2022-08-19T17:04:47;21.80;99.90
14779;DHT22;7481;53.750;10.570;2022-08-19T17:07:44;21.80;99.90
14779;DHT22;7481;53.750;10.570;2022-08-19T17:10:31;21.70;99.90
14779;DHT22;7481;53.750;10.570;2022-08-19T17:13:18;21.80;99.90
14779;DHT22;7481;53.750;10.570;2022-08-19T17:16:05;21.80;99.90
14779;DHT22;7481;53.750;10.570;2022-08-19T17:18:55;21.80;99.90
14779;DHT22;7481;53.750;10.570;2022-08-19T17:21:42;21.80;99.90
14779;DHT22;7481;53.750;10.570;2022-08-19T17:24:29;21.80;99.90
14779;DHT22;7481;53.750;10.570;2022-08-19T17:27:16;21.70;99.90
14779;DHT22;7481;53.750;10.570;2022-08-19T17:30:05;21.70;99.90
14779;DHT22;7481;53.750;10.570;2022-08-19T17:32:53;20.00;99.90
14779;DHT22;7481;53.750;10.570;2022-08-19T17:35:41;21.70;99.90
14779;DHT22;7481;53.750;10.570;2022-08-19T17:38:29;21.60;99.90
14779;DHT22;7481;53.750;10.570;2022-08-19T17:41:16;21.60;99.90
14779;DHT22;7481;53.750;10.570;2022-08-19T17:44:04;21.60;99.90
14779;DHT22;7481;53.750;10.570;2022-08-19T17:46:52;21.70;99.90
14779;DHT22;7481;53.750;10.570;2022-08-19T17:49:39;21.70;99.90
14779;DHT22;7481;53.750;10.570;2022-08-19T17:52:26;21.70;99.90
14779;DHT22;7481;53.750;10.570;2022-08-19T17:55:13;21.70;99.90
14779;DHT22;7481;53.750;10.570;2022-08-19T17:58:01;21.70;99.90